sensor_id;sensor_type;location;lat;lon;timestamp;P1;durP1;ratioP1;P2;durP2;ratioP2
5403;SDS011;2725;51.054;6.948;2022-08-03T00:00:03;2.6;;;2.1;;
5403;SDS011;2725;51.054;6.948;2022-08-03T00:05:01;2.5;;;2.2;;
5403;SDS011;2725;51.054;6.948;2022-08-03T00:10:01;2.5;;;2.2;;
5403;SDS011;2725;51.054;6.948;2022-08-03T00:15:01;2.4;;;2.0;;
5403;SDS011;2725;51.054;6.948;2022-08-03T00:20:01;2.4;;;2.0;;
5403;SDS011;2725;51.054;6.948;2022-08-03T00:25:01;2.4;;;1.9;;
5403;SDS011;2725;51.054;6.948;2022-08-03T00:30:01;2.4;;;1.9;;
5403;SDS011;2725;51.054;6.948;2022-08-03T00:35:01;2.3;;;2.0;;
5403;SDS011;2725;51.054;6.948;2022-08-03T00:40:01;2.3;;;2.0;;
5403;SDS011;2725;51.054;6.948;2022-08-03T00:45:01;2.3;;;2.0;;
5403;SDS011;2725;51.054;6.948;2022-08-03T00:50:02;2.3;;;2.0;;
5403;SDS011;2725;51.054;6.948;2022-08-03T00:55:01;3.0;;;2.0;;
5403;SDS011;2725;51.054;6.948;2022-08-03T01:00:03;3.0;;;2.0;;
5403;SDS011;2725;51.054;6.948;2022-08-03T01:05:01;3.0;;;2.0;;
5403;SDS011;2725;51.054;6.948;2022-08-03T01:10:23;3.0;;;2.0;;
5403;SDS011;2725;51.054;6.948;2022-08-03T01:15:07;2.2;;;2.0;;
5403;SDS011;2725;51.054;6.948;2022-08-03T01:20:03;2.2;;;2.0;;
5403;SDS011;2725;51.054;6.948;2022-08-03T01:25:03;3.5;;;2.0;;
5403;SDS011;2725;51.054;6.948;2022-08-03T01:30:03;3.5;;;2.0;;
5403;SDS011;2725;51.054;6.948;2022-08-03T01:35:03;2.2;;;2.0;;
5403;SDS011;2725;51.054;6.948;2022-08-03T01:40:01;2.2;;;2.0;;
5403;SDS011;2725;51.054;6.948;2022-08-03T01:45:01;2.5;;;2.0;;
5403;SDS011;2725;51.054;6.948;2022-08-03T01:50:01;2.5;;;2.0;;
5403;SDS011;2725;51.054;6.948;2022-08-03T01:55:01;2.5;;;2.0;;
5403;SDS011;2725;51.054;6.948;2022-08-03T02:00:02;2.5;;;2.0;;
5403;SDS011;2725;51.054;6.948;2022-08-03T02:05:02;2.8;;;1.9;;
5403;SDS011;2725;51.054;6.948;2022-08-03T02:10:02;2.8;;;1.9;;
5403;SDS011;2725;51.054;6.948;2022-08-03T02:15:01;2.5;;;1.8;;
5403;SDS011;2725;51.054;6.948;2022-08-03T02:20:02;2.5;;;1.8;;
5403;SDS011;2725;51.054;6.948;2022-08-03T02:25:01;3.0;;;1.9;;
5403;SDS011;2725;51.054;6.948;2022-08-03T02:30:02;3.0;;;1.9;;
5403;SDS011;2725;51.054;6.948;2022-08-03T02:35:02;2.3;;;2.1;;
5403;SDS011;2725;51.054;6.948;2022-08-03T02:40:03;2.3;;;2.1;;
5403;SDS011;2725;51.054;6.948;2022-08-03T02:45:02;2.3;;;2.1;;
5403;SDS011;2725;51.054;6.948;2022-08-03T02:50:01;2.3;;;2.1;;
5403;SDS011;2725;51.054;6.948;2022-08-03T02:55:01;3.2;;;2.0;;
5403;SDS011;2725;51.054;6.948;2022-08-03T03:00:02;3.2;;;2.0;;
5403;SDS011;2725;51.054;6.948;2022-08-03T03:05:01;3.2;;;1.9;;
5403;SDS011;2725;51.054;6.948;2022-08-03T03:10:02;3.2;;;1.9;;
5403;SDS011;2725;51.054;6.948;2022-08-03T03:15:02;2.5;;;1.9;;
5403;SDS011;2725;51.054;6.948;2022-08-03T03:20:02;2.5;;;1.9;;
5403;SDS011;2725;51.054;6.948;2022-08-03T03:25:01;2.1;;;1.9;;
5403;SDS011;2725;51.054;6.948;2022-08-03T03:30:01;2.1;;;1.9;;
5403;SDS011;2725;51.054;6.948;2022-08-03T03:35:02;2.5;;;1.7;;
5403;SDS011;2725;51.054;6.948;2022-08-03T03:40:02;2.5;;;1.7;;
5403;SDS011;2725;51.054;6.948;2022-08-03T03:45:02;2.5;;;1.7;;
5403;SDS011;2725;51.054;6.948;2022-08-03T03:50:03;2.5;;;1.7;;
5403;SDS011;2725;51.054;6.948;2022-08-03T03:55:01;2.4;;;1.8;;
5403;SDS011;2725;51.054;6.948;2022-08-03T04:00:02;2.4;;;1.8;;
5403;SDS011;2725;51.054;6.948;2022-08-03T04:05:01;2.2;;;2.0;;
5403;SDS011;2725;51.054;6.948;2022-08-03T04:10:01;2.2;;;2.0;;
5403;SDS011;2725;51.054;6.948;2022-08-03T04:15:01;1.8;;;1.6;;
5403;SDS011;2725;51.054;6.948;2022-08-03T04:20:01;1.8;;;1.6;;
5403;SDS011;2725;51.054;6.948;2022-08-03T04:25:02;1.7;;;1.6;;
5403;SDS011;2725;51.054;6.948;2022-08-03T04:30:02;1.7;;;1.6;;
5403;SDS011;2725;51.054;6.948;2022-08-03T04:35:02;1.9;;;1.7;;
5403;SDS011;2725;51.054;6.948;2022-08-03T04:40:02;1.9;;;1.7;;
5403;SDS011;2725;51.054;6.948;2022-08-03T04:45:02;2.3;;;1.9;;
5403;SDS011;2725;51.054;6.948;2022-08-03T04:50:02;2.3;;;1.9;;
5403;SDS011;2725;51.054;6.948;2022-08-03T04:55:01;2.3;;;1.8;;
5403;SDS011;2725;51.054;6.948;2022-08-03T05:00:02;2.3;;;1.8;;
5403;SDS011;2725;51.054;6.948;2022-08-03T05:05:01;2.3;;;1.8;;
5403;SDS011;2725;51.054;6.948;2022-08-03T05:10:01;2.3;;;1.8;;
5403;SDS011;2725;51.054;6.948;2022-08-03T05:15:02;2.0;;;1.8;;
5403;SDS011;2725;51.054;6.948;2022-08-03T05:20:02;2.0;;;1.8;;
5403;SDS011;2725;51.054;6.948;2022-08-03T05:25:01;2.2;;;1.8;;
5403;SDS011;2725;51.054;6.948;2022-08-03T05:30:01;2.2;;;1.8;;
5403;SDS011;2725;51.054;6.948;2022-08-03T05:35:02;2.0;;;1.7;;
5403;SDS011;2725;51.054;6.948;2022-08-03T05:40:02;2.0;;;1.7;;
5403;SDS011;2725;51.054;6.948;2022-08-03T05:45:03;1.9;;;1.6;;
5403;SDS011;2725;51.054;6.948;2022-08-03T05:50:02;1.9;;;1.6;;
5403;SDS011;2725;51.054;6.948;2022-08-03T05:55:01;2.0;;;1.5;;
5403;SDS011;2725;51.054;6.948;2022-08-03T06:00:03;2.0;;;1.5;;
5403;SDS011;2725;51.054;6.948;2022-08-03T06:05:02;1.9;;;1.7;;
5403;SDS011;2725;51.054;6.948;2022-08-03T06:10:02;1.9;;;1.7;;
5403;SDS011;2725;51.054;6.948;2022-08-03T06:15:01;2.1;;;1.8;;
5403;SDS011;2725;51.054;6.948;2022-08-03T06:20:01;2.1;;;1.8;;
5403;SDS011;2725;51.054;6.948;2022-08-03T06:25:01;2.2;;;1.9;;
5403;SDS011;2725;51.054;6.948;2022-08-03T06:30:01;2.2;;;1.9;;
5403;SDS011;2725;51.054;6.948;2022-08-03T06:35:01;2.3;;;1.7;;
5403;SDS011;2725;51.054;6.948;2022-08-03T06:40:01;2.3;;;1.7;;
5403;SDS011;2725;51.054;6.948;2022-08-03T06:45:01;2.3;;;1.7;;
5403;SDS011;2725;51.054;6.948;2022-08-03T06:50:02;2.3;;;1.7;;
5403;SDS011;2725;51.054;6.948;2022-08-03T06:55:01;2.5;;;2.0;;
5403;SDS011;2725;51.054;6.948;2022-08-03T07:00:01;2.5;;;2.0;;
5403;SDS011;2725;51.054;6.948;2022-08-03T07:05:01;2.4;;;2.0;;
5403;SDS011;2725;51.054;6.948;2022-08-03T07:10:01;2.4;;;2.0;;
5403;SDS011;2725;51.054;6.948;2022-08-03T07:15:01;3.9;;;2.0;;
5403;SDS011;2725;51.054;6.948;2022-08-03T07:20:03;3.9;;;2.0;;
5403;SDS011;2725;51.054;6.948;2022-08-03T07:25:02;2.3;;;1.9;;
5403;SDS011;2725;51.054;6.948;2022-08-03T07:30:03;2.3;;;1.9;;
5403;SDS011;2725;51.054;6.948;2022-08-03T07:35:02;2.0;;;1.8;;
5403;SDS011;2725;51.054;6.948;2022-08-03T07:40:02;2.0;;;1.8;;
5403;SDS011;2725;51.054;6.948;2022-08-03T07:45:01;2.1;;;1.8;;
5403;SDS011;2725;51.054;6.948;2022-08-03T07:50:01;2.1;;;1.8;;
5403;SDS011;2725;51.054;6.948;2022-08-03T07:55:01;2.2;;;1.7;;
5403;SDS011;2725;51.054;6.948;2022-08-03T08:00:03;2.2;;;1.7;;
5403;SDS011;2725;51.054;6.948;2022-08-03T08:05:02;2.1;;;1.7;;
5403;SDS011;2725;51.054;6.948;2022-08-03T08:10:01;2.1;;;1.7;;
5403;SDS011;2725;51.054;6.948;2022-08-03T08:15:01;2.9;;;1.7;;
5403;SDS011;2725;51.054;6.948;2022-08-03T08:20:01;2.9;;;1.7;;
5403;SDS011;2725;51.054;6.948;2022-08-03T08:25:02;2.4;;;1.8;;
5403;SDS011;2725;51.054;6.948;2022-08-03T08:30:03;2.4;;;1.8;;
5403;SDS011;2725;51.054;6.948;2022-08-03T08:35:01;2.4;;;1.8;;
5403;SDS011;2725;51.054;6.948;2022-08-03T08:40:02;2.4;;;1.8;;
5403;SDS011;2725;51.054;6.948;2022-08-03T08:45:02;2.5;;;1.6;;
5403;SDS011;2725;51.054;6.948;2022-08-03T08:50:02;2.5;;;1.6;;
5403;SDS011;2725;51.054;6.948;2022-08-03T08:55:02;2.8;;;1.5;;
5403;SDS011;2725;51.054;6.948;2022-08-03T09:00:04;2.8;;;1.5;;
5403;SDS011;2725;51.054;6.948;2022-08-03T09:05:01;2.9;;;1.7;;
5403;SDS011;2725;51.054;6.948;2022-08-03T09:10:01;2.9;;;1.7;;
5403;SDS011;2725;51.054;6.948;2022-08-03T09:15:14;2.8;;;1.6;;
5403;SDS011;2725;51.054;6.948;2022-08-03T09:20:03;2.8;;;1.6;;
5403;SDS011;2725;51.054;6.948;2022-08-03T09:25:03;2.3;;;1.4;;
5403;SDS011;2725;51.054;6.948;2022-08-03T09:30:02;2.3;;;1.4;;
5403;SDS011;2725;51.054;6.948;2022-08-03T09:35:03;3.7;;;1.8;;
5403;SDS011;2725;51.054;6.948;2022-08-03T09:40:01;3.7;;;1.8;;
5403;SDS011;2725;51.054;6.948;2022-08-03T09:45:02;3.8;;;1.6;;
5403;SDS011;2725;51.054;6.948;2022-08-03T09:50:06;3.8;;;1.6;;
5403;SDS011;2725;51.054;6.948;2022-08-03T09:55:06;2.9;;;1.5;;
5403;SDS011;2725;51.054;6.948;2022-08-03T10:00:05;2.9;;;1.5;;
5403;SDS011;2725;51.054;6.948;2022-08-03T10:05:01;3.0;;;1.8;;
5403;SDS011;2725;51.054;6.948;2022-08-03T10:10:01;3.0;;;1.8;;
5403;SDS011;2725;51.054;6.948;2022-08-03T10:15:01;3.0;;;1.8;;
5403;SDS011;2725;51.054;6.948;2022-08-03T10:20:02;3.0;;;1.8;;
5403;SDS011;2725;51.054;6.948;2022-08-03T10:25:03;4.8;;;1.6;;
5403;SDS011;2725;51.054;6.948;2022-08-03T10:30:03;4.8;;;1.6;;
5403;SDS011;2725;51.054;6.948;2022-08-03T10:35:03;3.1;;;1.5;;
5403;SDS011;2725;51.054;6.948;2022-08-03T10:40:02;3.1;;;1.5;;
5403;SDS011;2725;51.054;6.948;2022-08-03T10:45:04;3.0;;;1.5;;
5403;SDS011;2725;51.054;6.948;2022-08-03T10:50:02;3.0;;;1.5;;
5403;SDS011;2725;51.054;6.948;2022-08-03T10:55:01;2.1;;;1.2;;
5403;SDS011;2725;51.054;6.948;2022-08-03T11:00:02;2.1;;;1.2;;
5403;SDS011;2725;51.054;6.948;2022-08-03T11:05:34;2.5;;;1.3;;
5403;SDS011;2725;51.054;6.948;2022-08-03T11:10:01;2.5;;;1.3;;
5403;SDS011;2725;51.054;6.948;2022-08-03T11:15:03;2.6;;;1.2;;
5403;SDS011;2725;51.054;6.948;2022-08-03T11:20:02;2.6;;;1.2;;
5403;SDS011;2725;51.054;6.948;2022-08-03T11:25:02;3.0;;;1.5;;
5403;SDS011;2725;51.054;6.948;2022-08-03T11:30:23;3.0;;;1.5;;
5403;SDS011;2725;51.054;6.948;2022-08-03T11:35:10;1.3;;;1.2;;
5403;SDS011;2725;51.054;6.948;2022-08-03T11:40:02;1.3;;;1.2;;
5403;SDS011;2725;51.054;6.948;2022-08-03T11:45:02;1.3;;;1.2;;
5403;SDS011;2725;51.054;6.948;2022-08-03T11:50:01;1.3;;;1.2;;
5403;SDS011;2725;51.054;6.948;2022-08-03T11:55:01;2.5;;;1.3;;
5403;SDS011;2725;51.054;6.948;2022-08-03T12:00:02;2.5;;;1.3;;
5403;SDS011;2725;51.054;6.948;2022-08-03T12:05:02;3.5;;;1.2;;
5403;SDS011;2725;51.054;6.948;2022-08-03T12:10:17;3.5;;;1.2;;
5403;SDS011;2725;51.054;6.948;2022-08-03T12:15:02;5.6;;;1.2;;
5403;SDS011;2725;51.054;6.948;2022-08-03T12:20:02;5.6;;;1.2;;
5403;SDS011;2725;51.054;6.948;2022-08-03T12:25:01;2.5;;;1.2;;
5403;SDS011;2725;51.054;6.948;2022-08-03T12:30:02;2.5;;;1.2;;
5403;SDS011;2725;51.054;6.948;2022-08-03T12:35:01;2.3;;;1.1;;
5403;SDS011;2725;51.054;6.948;2022-08-03T12:40:02;2.3;;;1.1;;
5403;SDS011;2725;51.054;6.948;2022-08-03T12:45:33;3.8;;;1.3;;
5403;SDS011;2725;51.054;6.948;2022-08-03T12:50:01;3.8;;;1.3;;
5403;SDS011;2725;51.054;6.948;2022-08-03T12:55:02;2.0;;;1.1;;
5403;SDS011;2725;51.054;6.948;2022-08-03T13:00:09;2.0;;;1.1;;
5403;SDS011;2725;51.054;6.948;2022-08-03T13:05:08;1.8;;;1.2;;
5403;SDS011;2725;51.054;6.948;2022-08-03T13:10:01;1.8;;;1.2;;
5403;SDS011;2725;51.054;6.948;2022-08-03T13:15:01;2.8;;;1.1;;
5403;SDS011;2725;51.054;6.948;2022-08-03T13:20:01;2.8;;;1.1;;
5403;SDS011;2725;51.054;6.948;2022-08-03T13:25:02;3.1;;;1.6;;
5403;SDS011;2725;51.054;6.948;2022-08-03T13:30:01;3.1;;;1.6;;
5403;SDS011;2725;51.054;6.948;2022-08-03T13:35:02;3.0;;;1.6;;
5403;SDS011;2725;51.054;6.948;2022-08-03T13:40:02;3.0;;;1.6;;
5403;SDS011;2725;51.054;6.948;2022-08-03T13:45:01;2.3;;;1.3;;
5403;SDS011;2725;51.054;6.948;2022-08-03T13:50:01;2.3;;;1.3;;
5403;SDS011;2725;51.054;6.948;2022-08-03T13:55:02;1.6;;;1.1;;
5403;SDS011;2725;51.054;6.948;2022-08-03T14:00:01;1.6;;;1.1;;
5403;SDS011;2725;51.054;6.948;2022-08-03T14:05:02;1.3;;;1.2;;
5403;SDS011;2725;51.054;6.948;2022-08-03T14:10:02;1.3;;;1.2;;
5403;SDS011;2725;51.054;6.948;2022-08-03T14:15:02;2.0;;;1.1;;
5403;SDS011;2725;51.054;6.948;2022-08-03T14:20:02;2.0;;;1.1;;
5403;SDS011;2725;51.054;6.948;2022-08-03T14:25:01;2.0;;;1.1;;
5403;SDS011;2725;51.054;6.948;2022-08-03T14:30:02;2.0;;;1.1;;
5403;SDS011;2725;51.054;6.948;2022-08-03T14:35:01;2.5;;;1.2;;
5403;SDS011;2725;51.054;6.948;2022-08-03T14:40:01;2.5;;;1.2;;
5403;SDS011;2725;51.054;6.948;2022-08-03T14:45:01;2.5;;;1.2;;
5403;SDS011;2725;51.054;6.948;2022-08-03T14:50:01;2.5;;;1.2;;
5403;SDS011;2725;51.054;6.948;2022-08-03T14:55:01;2.5;;;1.3;;
5403;SDS011;2725;51.054;6.948;2022-08-03T15:00:01;2.5;;;1.3;;
5403;SDS011;2725;51.054;6.948;2022-08-03T15:05:01;2.9;;;1.4;;
5403;SDS011;2725;51.054;6.948;2022-08-03T15:10:01;2.9;;;1.4;;
5403;SDS011;2725;51.054;6.948;2022-08-03T15:15:02;2.5;;;1.4;;
5403;SDS011;2725;51.054;6.948;2022-08-03T15:20:02;2.5;;;1.4;;
5403;SDS011;2725;51.054;6.948;2022-08-03T15:25:02;2.3;;;1.1;;
5403;SDS011;2725;51.054;6.948;2022-08-03T15:30:01;2.3;;;1.1;;
5403;SDS011;2725;51.054;6.948;2022-08-03T15:35:02;4.0;;;1.4;;
5403;SDS011;2725;51.054;6.948;2022-08-03T15:40:02;4.0;;;1.4;;
5403;SDS011;2725;51.054;6.948;2022-08-03T15:45:02;1.8;;;1.2;;
5403;SDS011;2725;51.054;6.948;2022-08-03T15:50:02;1.8;;;1.2;;
5403;SDS011;2725;51.054;6.948;2022-08-03T15:55:01;1.4;;;1.1;;
5403;SDS011;2725;51.054;6.948;2022-08-03T16:00:04;1.4;;;1.1;;
5403;SDS011;2725;51.054;6.948;2022-08-03T16:05:01;1.4;;;1.0;;
5403;SDS011;2725;51.054;6.948;2022-08-03T16:10:02;1.4;;;1.0;;
5403;SDS011;2725;51.054;6.948;2022-08-03T16:15:02;2.2;;;1.3;;
5403;SDS011;2725;51.054;6.948;2022-08-03T16:20:02;2.2;;;1.3;;
5403;SDS011;2725;51.054;6.948;2022-08-03T16:25:02;2.1;;;1.1;;
5403;SDS011;2725;51.054;6.948;2022-08-03T16:30:03;2.1;;;1.1;;
5403;SDS011;2725;51.054;6.948;2022-08-03T16:35:01;2.1;;;1.1;;
5403;SDS011;2725;51.054;6.948;2022-08-03T16:40:02;2.1;;;1.1;;
5403;SDS011;2725;51.054;6.948;2022-08-03T16:45:02;3.1;;;1.4;;
5403;SDS011;2725;51.054;6.948;2022-08-03T16:50:01;3.1;;;1.4;;
5403;SDS011;2725;51.054;6.948;2022-08-03T16:55:02;2.6;;;1.4;;
5403;SDS011;2725;51.054;6.948;2022-08-03T17:00:01;2.6;;;1.4;;
5403;SDS011;2725;51.054;6.948;2022-08-03T17:05:01;2.4;;;1.3;;
5403;SDS011;2725;51.054;6.948;2022-08-03T17:10:02;2.4;;;1.3;;
5403;SDS011;2725;51.054;6.948;2022-08-03T17:15:01;2.4;;;1.3;;
5403;SDS011;2725;51.054;6.948;2022-08-03T17:20:04;2.4;;;1.3;;
5403;SDS011;2725;51.054;6.948;2022-08-03T17:25:03;2.5;;;1.0;;
5403;SDS011;2725;51.054;6.948;2022-08-03T17:30:06;2.5;;;1.0;;
5403;SDS011;2725;51.054;6.948;2022-08-03T17:35:01;3.2;;;1.0;;
5403;SDS011;2725;51.054;6.948;2022-08-03T17:40:01;3.2;;;1.0;;
5403;SDS011;2725;51.054;6.948;2022-08-03T17:45:01;3.2;;;1.0;;
5403;SDS011;2725;51.054;6.948;2022-08-03T17:50:01;3.2;;;1.0;;
5403;SDS011;2725;51.054;6.948;2022-08-03T17:55:05;2.3;;;1.0;;
5403;SDS011;2725;51.054;6.948;2022-08-03T18:00:03;2.3;;;1.0;;
5403;SDS011;2725;51.054;6.948;2022-08-03T18:05:02;2.3;;;1.0;;
5403;SDS011;2725;51.054;6.948;2022-08-03T18:10:02;2.3;;;1.0;;
5403;SDS011;2725;51.054;6.948;2022-08-03T18:15:02;1.3;;;1.0;;
5403;SDS011;2725;51.054;6.948;2022-08-03T18:20:02;1.3;;;1.0;;
5403;SDS011;2725;51.054;6.948;2022-08-03T18:25:01;1.3;;;1.0;;
5403;SDS011;2725;51.054;6.948;2022-08-03T18:30:01;1.3;;;1.0;;
5403;SDS011;2725;51.054;6.948;2022-08-03T18:35:02;1.3;;;1.0;;
5403;SDS011;2725;51.054;6.948;2022-08-03T18:40:01;1.3;;;1.0;;
5403;SDS011;2725;51.054;6.948;2022-08-03T18:45:01;1.3;;;1.0;;
5403;SDS011;2725;51.054;6.948;2022-08-03T18:50:36;1.3;;;1.0;;
5403;SDS011;2725;51.054;6.948;2022-08-03T18:55:05;1.3;;;1.0;;
5403;SDS011;2725;51.054;6.948;2022-08-03T19:00:04;1.3;;;1.0;;
5403;SDS011;2725;51.054;6.948;2022-08-03T19:05:04;1.3;;;1.0;;
5403;SDS011;2725;51.054;6.948;2022-08-03T19:10:04;1.3;;;1.0;;
5403;SDS011;2725;51.054;6.948;2022-08-03T19:15:03;1.3;;;1.0;;
5403;SDS011;2725;51.054;6.948;2022-08-03T19:20:02;1.3;;;1.0;;
5403;SDS011;2725;51.054;6.948;2022-08-03T19:25:02;1.3;;;1.0;;
5403;SDS011;2725;51.054;6.948;2022-08-03T19:30:03;1.3;;;1.0;;
5403;SDS011;2725;51.054;6.948;2022-08-03T19:35:02;1.3;;;1.0;;
5403;SDS011;2725;51.054;6.948;2022-08-03T19:40:02;1.3;;;1.0;;
5403;SDS011;2725;51.054;6.948;2022-08-03T19:45:03;1.3;;;1.0;;
5403;SDS011;2725;51.054;6.948;2022-08-03T19:50:05;1.3;;;1.0;;
5403;SDS011;2725;51.054;6.948;2022-08-03T19:55:03;1.3;;;1.0;;
5403;SDS011;2725;51.054;6.948;2022-08-03T20:00:02;1.3;;;1.0;;
5403;SDS011;2725;51.054;6.948;2022-08-03T20:05:02;1.3;;;1.0;;
5403;SDS011;2725;51.054;6.948;2022-08-03T20:10:03;1.3;;;1.0;;
5403;SDS011;2725;51.054;6.948;2022-08-03T20:15:01;1.5;;;1.1;;
5403;SDS011;2725;51.054;6.948;2022-08-03T20:20:01;1.5;;;1.1;;
5403;SDS011;2725;51.054;6.948;2022-08-03T20:25:05;2.1;;;1.1;;
5403;SDS011;2725;51.054;6.948;2022-08-03T20:30:01;2.1;;;1.1;;
5403;SDS011;2725;51.054;6.948;2022-08-03T20:35:02;1.9;;;1.3;;
5403;SDS011;2725;51.054;6.948;2022-08-03T20:40:02;1.9;;;1.3;;
5403;SDS011;2725;51.054;6.948;2022-08-03T20:45:02;2.6;;;1.3;;
5403;SDS011;2725;51.054;6.948;2022-08-03T20:50:02;2.6;;;1.3;;
5403;SDS011;2725;51.054;6.948;2022-08-03T20:55:04;2.4;;;1.3;;
5403;SDS011;2725;51.054;6.948;2022-08-03T21:00:03;2.4;;;1.3;;
5403;SDS011;2725;51.054;6.948;2022-08-03T21:05:02;2.3;;;1.3;;
5403;SDS011;2725;51.054;6.948;2022-08-03T21:10:03;2.3;;;1.3;;
5403;SDS011;2725;51.054;6.948;2022-08-03T21:15:03;1.6;;;1.3;;
5403;SDS011;2725;51.054;6.948;2022-08-03T21:20:03;1.6;;;1.3;;
5403;SDS011;2725;51.054;6.948;2022-08-03T21:25:03;2.5;;;1.5;;
5403;SDS011;2725;51.054;6.948;2022-08-03T21:30:04;2.5;;;1.5;;
5403;SDS011;2725;51.054;6.948;2022-08-03T21:35:01;2.4;;;1.4;;
5403;SDS011;2725;51.054;6.948;2022-08-03T21:40:01;2.4;;;1.4;;
5403;SDS011;2725;51.054;6.948;2022-08-03T21:45:03;2.7;;;1.7;;
5403;SDS011;2725;51.054;6.948;2022-08-03T21:50:02;2.7;;;1.7;;
5403;SDS011;2725;51.054;6.948;2022-08-03T21:55:03;2.7;;;1.8;;
5403;SDS011;2725;51.054;6.948;2022-08-03T22:00:05;2.7;;;1.8;;
5403;SDS011;2725;51.054;6.948;2022-08-03T22:05:01;2.9;;;1.9;;
5403;SDS011;2725;51.054;6.948;2022-08-03T22:10:02;2.9;;;1.9;;
5403;SDS011;2725;51.054;6.948;2022-08-03T22:15:03;3.2;;;1.6;;
5403;SDS011;2725;51.054;6.948;2022-08-03T22:20:03;3.2;;;1.6;;
5403;SDS011;2725;51.054;6.948;2022-08-03T22:25:03;3.4;;;1.6;;
5403;SDS011;2725;51.054;6.948;2022-08-03T22:30:04;3.4;;;1.6;;
5403;SDS011;2725;51.054;6.948;2022-08-03T22:35:02;2.3;;;1.6;;
5403;SDS011;2725;51.054;6.948;2022-08-03T22:40:04;2.3;;;1.6;;
5403;SDS011;2725;51.054;6.948;2022-08-03T22:45:02;1.9;;;1.4;;
5403;SDS011;2725;51.054;6.948;2022-08-03T22:50:02;1.9;;;1.4;;
5403;SDS011;2725;51.054;6.948;2022-08-03T22:55:02;2.1;;;1.7;;
5403;SDS011;2725;51.054;6.948;2022-08-03T23:00:04;2.1;;;1.7;;
5403;SDS011;2725;51.054;6.948;2022-08-03T23:05:03;1.9;;;1.4;;
5403;SDS011;2725;51.054;6.948;2022-08-03T23:10:03;1.9;;;1.4;;
5403;SDS011;2725;51.054;6.948;2022-08-03T23:15:02;1.9;;;1.4;;
5403;SDS011;2725;51.054;6.948;2022-08-03T23:20:03;1.9;;;1.4;;
5403;SDS011;2725;51.054;6.948;2022-08-03T23:25:01;2.2;;;1.4;;
5403;SDS011;2725;51.054;6.948;2022-08-03T23:30:01;2.2;;;1.4;;
5403;SDS011;2725;51.054;6.948;2022-08-03T23:35:03;2.2;;;1.4;;
5403;SDS011;2725;51.054;6.948;2022-08-03T23:40:01;2.2;;;1.4;;
5403;SDS011;2725;51.054;6.948;2022-08-03T23:45:01;3.4;;;1.4;;
5403;SDS011;2725;51.054;6.948;2022-08-03T23:50:01;3.4;;;1.4;;
5403;SDS011;2725;51.054;6.948;2022-08-03T23:55:07;3.4;;;1.4;;
